Gastonia, NC (28054)

9:31 PM EST on December 02, 2016 (GMT -0500)
Ragan Woods | | Change Station

Elev 787 ft 35.28 °N, 81.16 °W | Updated 29 seconds ago

Clear
Clear
42.3 °F
Feels Like 42 °F
N
0.0
Wind Variable Wind from West

Today
High -- | Low -- °F
--% Chance of Precip.
Yesterday
High -- | Low -- °F
Precip. -- in
Pressure 30.19 in
Visibility 10.0 miles
Clouds Clear
Windchill 42 °F
Dew Point 25 °F
Humidity 50%
Rainfall 0.00 in
Snow Depth Not available.
7:16 AM 5:12 PM
Waxing Crescent, 12% visible
METAR KAKH 030154Z AUTO 29004KT 10SM CLR 08/M05 A3019 RMK AO2 SLP224 T00831050
Pressure 30.19 in
Visibility 10.0 miles
Clouds Clear
Windchill 42 °F
Dew Point 25 °F
Humidity 50%
Rainfall 0.00 in
Snow Depth Not available.
7:16 AM 5:12 PM
Waxing Crescent, 12% visible
METAR KAKH 030154Z AUTO 29004KT 10SM CLR 08/M05 A3019 RMK AO2 SLP224 T00831050

10-Day Weather Forecast

Almanac

Astronomy

Dec. 02, 2016 Rise Set
Actual Time
Civil Twilight
Nautical Twilight
Astronomical Twilight
Moon
Length of Visible Light
Length of Day
Tomorrow will be .
, % of the Moon is Illuminated

Today's Extremes

State Highs State Lows

Community

WunderPhotos

Upload Photos

1,955,396 photos uploaded!

WunderBlog® & News

Nearby

Air Quality

  Air Quality AQ Index Pollutant
Not available.

Snow Depth

Station Depth Elevation

Earthquake Activity

City Distance Mag. Time & Date
Minimum magnitude displayed is 2.5.

Coastal Water Temperatures

Place Temperature

Stations

Nearby Weather Stations

Station Location Temp. Windchill Dew Point Humidity Wind Precip. Elev Updated Type
                   

Watches & Warnings

There are currently no watches in effect.